Live aus Altenrhein
LIVE
LSZR 241150Z 28010KT 8000 NSC 10/07 Q1022 NOSIG RMK I

People´s Info Center:

Öffnungszeiten Mo-Fr, 8-18 Uhr

 

info@peoples.ch

 
Aus Österreich:

T: +43 (0)5572 203 610

 

Aus CH / LI / DE:

T: +41 (0)71 858 51 60

 

Flughafen St. Gallen-Altenrhein: Abflug

 

Aktueller Flugstatus Abflüge
Plan Erw. nach Flug Info
06:30 06:30 Wien PE100
gelandet
06:30 06:30 Friedrichshafen PE200
gelandet
06:30 06:30 Köln/Bonn PE200
gelandet
10:40 10:40 Wien PE102
abgeflogen
14:20 14:20 Wien PE104
planmässig
17:20 17:20 Friedrichshafen PE202
planmässig
17:20 17:20 Köln/Bonn PE202
planmässig
18:05 18:05 Wien PE106
planmässig